createdAt,value
2022-08-22T00:02:26.721Z,99450.25
2022-08-22T00:03:11.356Z,99475.03
2022-08-22T00:05:36.708Z,99449.38
2022-08-22T00:08:08.579Z,99448.97
2022-08-22T00:10:49.951Z,99457.94
2022-08-22T00:13:41.180Z,99444.56
2022-08-22T00:16:21.212Z,99439.13
2022-08-22T00:19:37.485Z,99466.91
2022-08-22T00:22:38.415Z,99439.34
2022-08-22T00:25:24.779Z,99462.97
2022-08-22T00:27:59.478Z,99467.00
2022-08-22T00:30:26.840Z,99452.94
2022-08-22T00:32:59.537Z,99446.16
2022-08-22T00:35:40.567Z,99472.41
2022-08-22T00:38:22.796Z,99435.84
2022-08-22T00:41:34.032Z,99462.78
2022-08-22T00:44:22.264Z,99457.22
2022-08-22T00:47:20.750Z,99434.63
2022-08-22T00:49:53.652Z,99477.66
2022-08-22T00:52:52.964Z,99468.81
2022-08-22T00:55:40.239Z,99469.16
2022-08-22T00:58:15.794Z,99471.00
2022-08-22T01:00:48.759Z,99453.56
2022-08-22T01:03:18.356Z,99466.56
2022-08-22T01:05:51.127Z,99445.66
2022-08-22T01:08:39.595Z,99458.91
2022-08-22T01:11:09.264Z,99462.09
2022-08-22T01:13:35.863Z,99457.69
2022-08-22T01:16:26.472Z,99445.78
2022-08-22T01:19:05.223Z,99469.66
2022-08-22T01:21:56.691Z,99466.91
2022-08-22T01:24:35.527Z,99470.75
2022-08-22T01:27:23.471Z,99467.13
2022-08-22T01:30:13.280Z,99465.44
2022-08-22T01:33:10.053Z,99443.03
2022-08-22T01:36:14.325Z,99461.50
2022-08-22T01:39:11.935Z,99453.22
2022-08-22T01:41:38.608Z,99467.59
2022-08-22T01:44:27.072Z,99467.09
2022-08-22T01:47:05.500Z,99469.25
2022-08-22T01:49:35.221Z,99465.47
2022-08-22T01:52:11.218Z,99466.56
2022-08-22T01:54:57.803Z,99452.56
2022-08-22T01:57:26.278Z,99460.44
2022-08-22T01:59:57.798Z,99430.75
2022-08-22T02:02:51.614Z,99447.88
2022-08-22T02:05:31.814Z,99469.78
2022-08-22T02:08:14.327Z,99457.25
2022-08-22T02:10:56.851Z,99461.25
2022-08-22T02:14:02.032Z,99466.38
2022-08-22T02:16:48.317Z,99457.06
2022-08-22T02:19:15.059Z,99461.63
2022-08-22T02:21:44.832Z,99464.19
2022-08-22T02:24:26.805Z,99465.53
2022-08-22T02:27:08.452Z,99467.38
2022-08-22T02:29:45.828Z,99435.94
2022-08-22T02:32:42.824Z,99456.25
2022-08-22T02:35:29.757Z,99468.84
2022-08-22T02:37:56.428Z,99472.34
2022-08-22T02:40:23.265Z,99474.03
2022-08-22T02:43:09.252Z,99458.22
2022-08-22T02:45:47.521Z,99467.28
2022-08-22T02:48:39.033Z,99463.03
2022-08-22T02:51:19.493Z,99436.56
2022-08-22T02:53:50.744Z,99460.25
2022-08-22T02:56:43.118Z,99461.09
2022-08-22T02:59:32.603Z,99464.25
2022-08-22T03:02:36.232Z,99447.22
2022-08-22T03:05:28.988Z,99461.13
2022-08-22T03:08:09.304Z,99462.56
2022-08-22T03:10:54.858Z,99463.16
2022-08-22T03:13:40.547Z,99460.50
2022-08-22T03:16:17.332Z,99437.69
2022-08-22T03:18:56.374Z,99462.91
2022-08-22T03:21:46.077Z,99455.53
2022-08-22T03:24:18.298Z,99463.66
2022-08-22T03:26:52.349Z,99464.50
2022-08-22T03:29:26.316Z,99463.91
2022-08-22T03:32:16.759Z,99465.94
2022-08-22T03:35:09.087Z,99473.34
2022-08-22T03:37:35.772Z,99474.19
2022-08-22T03:40:08.527Z,99475.88
2022-08-22T03:42:54.093Z,99470.66
2022-08-22T03:45:20.816Z,99470.53
2022-08-22T03:48:13.596Z,99471.50
2022-08-22T03:50:54.580Z,99476.59
2022-08-22T03:53:46.019Z,99475.25
2022-08-22T03:56:34.292Z,99464.63
2022-08-22T03:59:22.991Z,99472.25
2022-08-22T04:02:01.968Z,99472.00
2022-08-22T04:05:07.028Z,99463.88
2022-08-22T04:07:45.124Z,99458.00
2022-08-22T04:10:20.708Z,99474.41
2022-08-22T04:13:15.280Z,99466.91
2022-08-22T04:16:03.495Z,99464.50
2022-08-22T04:19:16.463Z,99474.66
2022-08-22T04:21:58.350Z,99481.19
2022-08-22T04:24:40.815Z,99471.44
2022-08-22T04:27:22.477Z,99472.13
2022-08-22T04:30:03.521Z,99463.66
2022-08-22T04:32:45.619Z,99471.28
2022-08-22T04:35:38.312Z,99482.88
2022-08-22T04:38:14.597Z,99475.38
2022-08-22T04:41:29.839Z,99490.81
2022-08-22T04:44:05.786Z,99472.22
2022-08-22T04:46:56.516Z,99475.00
2022-08-22T04:49:23.280Z,99492.50
2022-08-22T04:52:32.014Z,99492.63
2022-08-22T04:55:17.471Z,99490.22
2022-08-22T04:58:02.909Z,99493.59
2022-08-22T05:00:57.959Z,99488.75
2022-08-22T05:03:28.957Z,99491.53
2022-08-22T05:06:00.269Z,99487.53
2022-08-22T05:08:32.035Z,99485.13
2022-08-22T05:11:03.417Z,99484.31
2022-08-22T05:13:40.976Z,99488.41
2022-08-22T05:16:18.285Z,99495.19
2022-08-22T05:18:53.052Z,99490.50
2022-08-22T05:21:27.118Z,99472.72
2022-08-22T05:24:02.985Z,99486.88
2022-08-22T05:26:35.538Z,99508.66
2022-08-22T05:29:08.131Z,99483.25
2022-08-22T05:31:50.142Z,99505.16
2022-08-22T05:34:21.886Z,99521.06
2022-08-22T05:36:57.204Z,99506.13
2022-08-22T05:39:27.881Z,99517.25
2022-08-22T05:41:57.051Z,99526.91
2022-08-22T05:44:27.433Z,99487.25
2022-08-22T05:47:02.424Z,99515.88
2022-08-22T05:49:32.225Z,99524.44
2022-08-22T05:52:11.061Z,99519.50
2022-08-22T05:54:53.655Z,99505.63
2022-08-22T05:57:30.729Z,99517.31
2022-08-22T06:00:21.535Z,99512.72
2022-08-22T06:02:55.237Z,99521.31
2022-08-22T06:05:27.660Z,99525.50
2022-08-22T06:08:05.287Z,99527.53
2022-08-22T06:10:48.198Z,99508.22
2022-08-22T06:13:37.328Z,99497.47
2022-08-22T06:16:24.115Z,99508.00
2022-08-22T06:18:52.872Z,99511.03
2022-08-22T06:21:33.707Z,99514.22
2022-08-22T06:24:09.624Z,99492.69
2022-08-22T06:26:40.329Z,99533.69
2022-08-22T06:29:09.357Z,99536.69
2022-08-22T06:31:43.388Z,99524.91
2022-08-22T06:34:15.080Z,99512.53
2022-08-22T06:36:46.154Z,99526.69
2022-08-22T06:39:31.220Z,99523.06
2022-08-22T06:42:01.607Z,99535.41
2022-08-22T06:44:43.087Z,99529.28
2022-08-22T06:47:16.436Z,99528.31
2022-08-22T06:49:45.806Z,99500.41
2022-08-22T06:52:19.079Z,99528.19
2022-08-22T06:54:49.019Z,99532.94
2022-08-22T06:57:37.589Z,99547.53
2022-08-22T07:00:13.708Z,99552.97
2022-08-22T07:02:44.039Z,99473.50
2022-08-22T07:05:18.255Z,99555.25
2022-08-22T07:07:45.577Z,99548.25
2022-08-22T07:10:14.865Z,99558.28
2022-08-22T07:12:49.480Z,99538.16
2022-08-22T07:15:21.087Z,99558.31
2022-08-22T07:17:51.618Z,99546.22
2022-08-22T07:20:42.024Z,99549.84
2022-08-22T07:23:12.553Z,99556.66
2022-08-22T07:26:00.221Z,99558.63
2022-08-22T07:28:51.399Z,99565.09
2022-08-22T07:31:39.513Z,99554.69
2022-08-22T07:34:32.635Z,99564.66
2022-08-22T07:37:12.271Z,99555.56
2022-08-22T07:39:55.263Z,99553.19
2022-08-22T07:42:46.093Z,99560.25
2022-08-22T07:45:21.617Z,99567.84
2022-08-22T07:48:00.288Z,99571.66
2022-08-22T07:50:31.591Z,99527.09
2022-08-22T07:53:19.712Z,99567.44
2022-08-22T07:55:49.433Z,99559.50
2022-08-22T07:58:17.852Z,99568.09
2022-08-22T08:00:48.317Z,99572.06
2022-08-22T08:03:15.482Z,99569.53
2022-08-22T08:05:44.600Z,99546.03
2022-08-22T08:08:31.169Z,99577.69
2022-08-22T08:11:00.101Z,99575.00
2022-08-22T08:13:34.828Z,99582.19
2022-08-22T08:16:05.192Z,99582.19
2022-08-22T08:18:34.996Z,99572.84
2022-08-22T08:21:29.966Z,99585.84
2022-08-22T08:23:58.975Z,99572.78
2022-08-22T08:26:32.593Z,99577.03
2022-08-22T08:29:00.696Z,99584.47
2022-08-22T08:31:42.623Z,99587.59
2022-08-22T08:34:23.140Z,99580.38
2022-08-22T08:36:55.902Z,99589.09
2022-08-22T08:39:35.177Z,99582.50
2022-08-22T08:43:00.224Z,99590.34
2022-08-22T08:45:59.295Z,99601.34
2022-08-22T08:48:41.308Z,99596.84
2022-08-22T08:51:14.932Z,99599.13
2022-08-22T08:53:57.123Z,99592.63
2022-08-22T08:56:35.662Z,99589.97
2022-08-22T08:59:25.960Z,99601.25
2022-08-22T09:02:08.777Z,99600.13
2022-08-22T09:05:20.967Z,99575.09
2022-08-22T09:08:19.248Z,99604.97
2022-08-22T09:14:31.120Z,99615.00
2022-08-22T09:17:45.681Z,99606.03
2022-08-22T09:20:15.447Z,99616.31
2022-08-22T09:23:22.975Z,99554.28
2022-08-22T09:26:05.879Z,99613.31
2022-08-22T09:28:54.385Z,99619.38
2022-08-22T09:31:51.940Z,99616.56
2022-08-22T09:34:30.556Z,99612.19
2022-08-22T09:37:24.426Z,99617.94
2022-08-22T09:40:34.579Z,99613.16
2022-08-22T09:43:08.807Z,99620.25
2022-08-22T09:46:13.284Z,99621.56
2022-08-22T09:49:01.152Z,99596.88
2022-08-22T09:51:45.000Z,99617.63
2022-08-22T09:54:18.692Z,99617.53
2022-08-22T09:56:58.519Z,99622.47
2022-08-22T09:59:25.157Z,99621.91
2022-08-22T10:02:34.597Z,99606.56
2022-08-22T10:05:40.541Z,99617.41
2022-08-22T10:08:46.052Z,99607.66
2022-08-22T10:11:30.284Z,99616.25
2022-08-22T10:14:01.724Z,99620.94
2022-08-22T10:17:07.136Z,99624.88
2022-08-22T10:19:52.547Z,99623.03
2022-08-22T10:22:44.717Z,99619.78
2022-08-22T10:25:29.597Z,99621.78
2022-08-22T10:28:23.921Z,99626.69
2022-08-22T10:31:08.131Z,99622.78
2022-08-22T10:34:02.333Z,99622.06
2022-08-22T10:36:36.096Z,99620.22
2022-08-22T10:39:11.077Z,99617.47
2022-08-22T10:41:47.715Z,99625.50
2022-08-22T10:44:38.489Z,99624.22
2022-08-22T10:47:19.125Z,99612.03
2022-08-22T10:49:59.055Z,99619.09
2022-08-22T10:52:39.373Z,99629.56
2022-08-22T10:55:27.605Z,99614.28
2022-08-22T10:58:12.830Z,99616.56
2022-08-22T11:00:54.407Z,99633.31
2022-08-22T11:03:42.522Z,99624.03
2022-08-22T11:06:27.960Z,99633.91
2022-08-22T11:09:08.588Z,99610.66
2022-08-22T11:12:00.464Z,99619.09
2022-08-22T11:14:53.855Z,99628.69
2022-08-22T11:17:40.654Z,99627.53
2022-08-22T11:20:14.415Z,99629.81
2022-08-22T11:23:34.021Z,99631.09
2022-08-22T11:26:30.156Z,99634.00
2022-08-22T11:29:21.919Z,99631.50
2022-08-22T11:32:13.803Z,99633.47
2022-08-22T11:35:09.306Z,99643.06
2022-08-22T11:37:45.439Z,99640.97
2022-08-22T11:40:31.472Z,99626.97
2022-08-22T11:43:37.573Z,99640.19
2022-08-22T11:46:20.027Z,99629.00
2022-08-22T11:48:59.538Z,99638.41
2022-08-22T11:51:46.807Z,99639.81
2022-08-22T11:54:39.675Z,99626.28
2022-08-22T11:57:18.799Z,99623.50
2022-08-22T11:59:45.496Z,99633.22
2022-08-22T12:02:26.376Z,99635.66
2022-08-22T12:05:06.116Z,99493.50
2022-08-22T12:07:40.335Z,99637.34
2022-08-22T12:16:14.627Z,99625.59
2022-08-22T12:19:08.288Z,99552.22
2022-08-22T12:21:56.115Z,99486.50
2022-08-22T12:24:44.374Z,99620.16
2022-08-22T12:27:27.988Z,99611.09
2022-08-22T12:30:14.233Z,99604.69
2022-08-22T12:32:49.172Z,99607.66
2022-08-22T12:35:37.799Z,99616.13
2022-08-22T12:38:29.086Z,99519.94
2022-08-22T12:41:12.010Z,99600.44
2022-08-22T12:43:50.952Z,99598.75
2022-08-22T12:46:47.307Z,99478.59
2022-08-22T12:49:41.813Z,99446.41
2022-08-22T12:52:44.896Z,99590.59
2022-08-22T12:55:27.408Z,99589.75
2022-08-22T12:58:25.303Z,99595.91
2022-08-22T13:00:53.022Z,99437.53
2022-08-22T13:03:35.487Z,99462.53
2022-08-22T13:06:26.491Z,99450.84
2022-08-22T13:08:54.575Z,99559.28
2022-08-22T13:11:23.734Z,99604.06
2022-08-22T13:14:00.751Z,99470.25
2022-08-22T13:16:39.446Z,99466.75
2022-08-22T13:19:24.022Z,99541.91
2022-08-22T13:22:20.881Z,99456.84
2022-08-22T13:24:55.325Z,99462.38
2022-08-22T13:27:50.646Z,99471.66
2022-08-22T13:33:25.820Z,99605.59
2022-08-22T13:36:10.843Z,99598.50
2022-08-22T13:38:49.167Z,99596.22
2022-08-22T13:41:29.735Z,99599.97
2022-08-22T13:44:15.318Z,99614.59
2022-08-22T13:47:10.899Z,99594.03
2022-08-22T13:49:44.523Z,99609.94
2022-08-22T13:52:32.720Z,99616.53
2022-08-22T13:55:43.468Z,99612.22
2022-08-22T13:58:37.967Z,99598.00
2022-08-22T14:01:07.706Z,99618.69
2022-08-22T14:03:55.503Z,99565.47
2022-08-22T14:06:37.868Z,99611.31
2022-08-22T14:09:54.373Z,99619.06
2022-08-22T14:12:56.901Z,99617.13
2022-08-22T14:15:32.302Z,99604.94
2022-08-22T14:18:18.480Z,99616.31
2022-08-22T14:20:47.530Z,99619.69
2022-08-22T14:23:27.070Z,99617.41
2022-08-22T14:25:55.692Z,99612.38
2022-08-22T14:28:33.668Z,99630.25
2022-08-22T14:31:08.591Z,99631.38
2022-08-22T14:33:39.869Z,99588.44
2022-08-22T14:36:22.976Z,99623.56
2022-08-22T14:39:29.776Z,99617.28
2022-08-22T14:42:10.140Z,99610.41
2022-08-22T14:45:33.079Z,99623.00
2022-08-22T14:48:29.278Z,99588.47
2022-08-22T14:50:56.911Z,99627.78
2022-08-22T14:53:37.260Z,99617.41
2022-08-22T14:56:10.898Z,99570.78
2022-08-22T14:58:58.843Z,99622.72
2022-08-22T15:01:29.660Z,99602.88
2022-08-22T15:04:02.248Z,99598.13
2022-08-22T15:06:35.979Z,99614.72
2022-08-22T15:09:25.074Z,99602.13
2022-08-22T15:11:53.338Z,99597.63
2022-08-22T15:14:27.907Z,99608.75
2022-08-22T15:17:02.423Z,99586.69
2022-08-22T15:19:41.044Z,99618.00
2022-08-22T15:22:11.426Z,99609.75
2022-08-22T15:25:00.973Z,99594.16
2022-08-22T15:27:35.038Z,99611.59
2022-08-22T15:30:16.893Z,99590.56
2022-08-22T15:32:49.196Z,99610.38
2022-08-22T15:35:29.976Z,99614.13
2022-08-22T15:38:03.515Z,99622.59
2022-08-22T15:40:33.321Z,99624.41
2022-08-22T15:43:28.853Z,99609.44
2022-08-22T15:46:36.932Z,99605.63
2022-08-22T15:49:06.422Z,99621.91
2022-08-22T15:51:40.033Z,99624.47
2022-08-22T15:54:25.648Z,99608.19
2022-08-22T15:56:52.851Z,99619.72
2022-08-22T15:59:30.689Z,99601.56
2022-08-22T16:02:35.397Z,99614.97
2022-08-22T16:05:11.646Z,99621.63
2022-08-22T16:07:58.592Z,99621.69
2022-08-22T16:10:25.271Z,99616.13
2022-08-22T16:13:13.978Z,99615.41
2022-08-22T16:15:55.740Z,99611.69
2022-08-22T16:18:39.510Z,99620.78
2022-08-22T16:21:17.855Z,99624.75
2022-08-22T16:23:56.861Z,99626.00
2022-08-22T16:26:37.002Z,99603.63
2022-08-22T16:29:04.008Z,99636.25
2022-08-22T16:31:56.104Z,99635.28
2022-08-22T16:34:27.727Z,99613.72
2022-08-22T16:37:03.237Z,99630.03
2022-08-22T16:39:42.118Z,99634.50
2022-08-22T16:42:20.999Z,99637.25
2022-08-22T16:45:11.706Z,99633.56
2022-08-22T16:47:52.180Z,99633.69
2022-08-22T16:50:36.583Z,99620.00
2022-08-22T16:53:21.633Z,99645.34
2022-08-22T16:56:02.280Z,99648.28
2022-08-22T16:59:22.898Z,99648.41
2022-08-22T17:02:08.656Z,99659.09
2022-08-22T17:04:43.391Z,99648.28
2022-08-22T17:07:43.629Z,99645.13
2022-08-22T17:10:35.343Z,99665.63
2022-08-22T17:13:43.001Z,99655.09
2022-08-22T17:16:28.445Z,99667.47
2022-08-22T17:19:03.621Z,99667.66
2022-08-22T17:21:38.810Z,99657.63
2022-08-22T17:24:31.996Z,99677.53
2022-08-22T17:27:30.349Z,99652.56
2022-08-22T17:30:07.180Z,99674.25
2022-08-22T17:32:59.839Z,99662.47
2022-08-22T17:35:55.008Z,99690.91
2022-08-22T17:38:30.659Z,99698.78
2022-08-22T17:41:12.656Z,99702.28
2022-08-22T17:44:00.858Z,99706.53
2022-08-22T17:46:47.028Z,99709.72
2022-08-22T17:49:22.414Z,99714.94
2022-08-22T17:52:24.612Z,99719.66
2022-08-22T17:54:57.590Z,99718.09
2022-08-22T17:57:38.440Z,99709.53
2022-08-22T18:00:17.317Z,99731.28
2022-08-22T18:03:09.053Z,99731.53
2022-08-22T18:06:05.642Z,99727.41
2022-08-22T18:11:54.596Z,99720.63
2022-08-22T18:14:50.691Z,99730.94
2022-08-22T18:17:32.431Z,99724.81
2022-08-22T18:20:23.053Z,99726.50
2022-08-22T18:22:56.932Z,99730.97
2022-08-22T18:25:29.355Z,99721.03
2022-08-22T18:28:01.295Z,99692.22
2022-08-22T18:30:33.254Z,99735.22
2022-08-22T18:33:34.252Z,99734.38
2022-08-22T18:36:10.893Z,99743.34
2022-08-22T18:38:55.902Z,99743.81
2022-08-22T18:41:29.120Z,99747.78
2022-08-22T18:43:59.262Z,99725.94
2022-08-22T18:46:38.824Z,99730.66
2022-08-22T18:49:20.857Z,99745.69
2022-08-22T18:52:09.249Z,99748.66
2022-08-22T18:54:45.583Z,99743.66
2022-08-22T18:57:32.718Z,99757.72
2022-08-22T19:00:20.898Z,99757.22
2022-08-22T19:03:25.525Z,99752.56
2022-08-22T19:05:57.996Z,99766.38
2022-08-22T19:08:24.863Z,99769.44
2022-08-22T19:11:06.770Z,99770.34
2022-08-22T19:14:09.030Z,99762.81
2022-08-22T19:16:54.338Z,99758.59
2022-08-22T19:20:00.342Z,99755.78
2022-08-22T19:22:36.981Z,99740.28
2022-08-22T19:25:18.558Z,99734.91
2022-08-22T19:27:47.415Z,99753.69
2022-08-22T19:30:42.426Z,99759.00
2022-08-22T19:33:16.717Z,99745.88
2022-08-22T19:35:45.983Z,99753.06
2022-08-22T19:38:47.720Z,99742.38
2022-08-22T19:42:01.309Z,99744.88
2022-08-22T19:44:43.478Z,99741.38
2022-08-22T19:47:20.973Z,99754.81
2022-08-22T19:49:50.911Z,99753.78
2022-08-22T19:52:37.812Z,99740.97
2022-08-22T19:55:38.272Z,99746.72
2022-08-22T19:58:16.484Z,99762.34
2022-08-22T20:01:01.893Z,99758.09
2022-08-22T20:03:53.295Z,99762.66
2022-08-22T20:06:45.795Z,99766.50
2022-08-22T20:09:50.096Z,99761.19
2022-08-22T20:12:28.756Z,99763.19
2022-08-22T20:14:56.396Z,99756.75
2022-08-22T20:17:26.249Z,99764.56
2022-08-22T20:23:25.147Z,99745.56
2022-08-22T20:25:56.004Z,99761.50
2022-08-22T20:28:45.452Z,99767.13
2022-08-22T20:31:20.958Z,99754.59
2022-08-22T20:33:57.469Z,99740.03
2022-08-22T20:36:28.468Z,99765.75
2022-08-22T20:39:01.719Z,99788.25
2022-08-22T20:41:39.095Z,99759.88
2022-08-22T20:44:12.542Z,99750.22
2022-08-22T20:46:39.482Z,99772.44
2022-08-22T20:49:18.659Z,99737.69
2022-08-22T20:51:55.153Z,99747.91
2022-08-22T20:54:25.368Z,99738.03
2022-08-22T20:57:00.023Z,99711.50
2022-08-22T20:59:37.103Z,99745.78
2022-08-22T21:02:06.819Z,99761.69
2022-08-22T21:05:03.711Z,99712.66
2022-08-22T21:07:56.637Z,99768.69
2022-08-22T21:10:44.807Z,99762.44
2022-08-22T21:13:23.518Z,99765.19
2022-08-22T21:15:54.395Z,99748.28
2022-08-22T21:18:32.647Z,99765.06
2022-08-22T21:21:18.108Z,99765.84
2022-08-22T21:23:51.350Z,99749.78
2022-08-22T21:26:30.828Z,99757.50
2022-08-22T21:29:12.635Z,99768.75
2022-08-22T21:31:47.301Z,99779.75
2022-08-22T21:34:17.083Z,99772.06
2022-08-22T21:36:43.862Z,99776.81
2022-08-22T21:39:24.683Z,99781.31
2022-08-22T21:42:12.355Z,99734.03
2022-08-22T21:44:43.523Z,99773.75
2022-08-22T21:47:30.794Z,99774.50
2022-08-22T21:50:18.987Z,99747.28
2022-08-22T21:52:54.812Z,99771.06
2022-08-22T21:55:34.572Z,99774.63
2022-08-22T21:58:36.592Z,99774.38
2022-08-22T22:01:27.979Z,99771.63
2022-08-22T22:03:55.629Z,99765.50
2022-08-22T22:06:22.422Z,99773.56
2022-08-22T22:08:49.199Z,99755.41
2022-08-22T22:11:16.609Z,99777.69
2022-08-22T22:13:44.576Z,99759.56
2022-08-22T22:16:15.120Z,99755.72
2022-08-22T22:18:41.883Z,99759.66
2022-08-22T22:21:09.409Z,99755.41
2022-08-22T22:23:36.168Z,99773.69
2022-08-22T22:26:05.752Z,99769.81
2022-08-22T22:28:39.173Z,99736.47
2022-08-22T22:31:06.868Z,99774.63
2022-08-22T22:33:37.709Z,99784.19
2022-08-22T22:36:09.397Z,99724.88
2022-08-22T22:38:38.159Z,99760.66
2022-08-22T22:41:05.009Z,99782.44
2022-08-22T22:43:32.082Z,99760.19
2022-08-22T22:45:59.147Z,99757.56
2022-08-22T22:48:25.909Z,99755.94
2022-08-22T22:50:54.084Z,99744.88
2022-08-22T22:53:40.507Z,99741.84
2022-08-22T22:56:10.256Z,99770.88
2022-08-22T22:58:38.625Z,99767.06
2022-08-22T23:01:17.000Z,99763.88
2022-08-22T23:03:47.325Z,99773.22
2022-08-22T23:06:20.165Z,99780.63
2022-08-22T23:08:48.536Z,99769.19
2022-08-22T23:11:21.851Z,99791.13
2022-08-22T23:13:49.477Z,99791.03
2022-08-22T23:16:26.095Z,99786.13
2022-08-22T23:18:53.168Z,99792.63
2022-08-22T23:21:24.535Z,99784.16
2022-08-22T23:23:52.091Z,99796.44
2022-08-22T23:26:18.965Z,99783.97
2022-08-22T23:28:46.186Z,99803.44
2022-08-22T23:31:18.044Z,99803.91
2022-08-22T23:33:45.879Z,99798.13
2022-08-22T23:36:16.417Z,99781.94
2022-08-22T23:38:44.022Z,99780.63
2022-08-22T23:41:15.731Z,99792.84
2022-08-22T23:43:46.117Z,99789.16
2022-08-22T23:46:15.672Z,99779.72
2022-08-22T23:48:42.677Z,99762.69
2022-08-22T23:51:11.240Z,99757.88
2022-08-22T23:53:38.421Z,99757.09
2022-08-22T23:56:10.371Z,99723.69
2022-08-22T23:58:49.042Z,99765.34
